Terminal Aerodrome Forecast
Issued by NWS Shreveport, LA

Home | Current Version | Previous Version | Text Only | Print | Product List | Glossary On
Versions: 1 2 3 4 5 6 7 8 9 10 11 12
000
FTUS44 KSHV 282323
TAFMLU
TAF
KMLU 282323Z 2900/2924 14005KT P6SM SCT060
      TEMPO 2909/2912 5SM BR BKN015
     FM291200 15004KT P6SM BKN010
      TEMPO 2914/2917 16010G16KT BKN025
     FM291700 16013G23KT P6SM SCT035 BKN250
     FM292100 17014G24KT P6SM SCT050 BKN250=

USA.gov is the U.S. government's official web portal to all federal, state and local government web resources and services.